Time;durP1;ratioP1;P1;durP2;ratioP2;P2;SDS_P1;SDS_P2;PMS_P1;PMS_P2;Temp;Humidity;BMP_temperature;BMP_pressure;BME280_temperature;BME280_humidity;BME280_pressure;Samples;Min_cycle;Max_cycle;Signal;HPM_P1;HPM_P2
2023/01/16 00:01:28;;;;;;;;;;;;;;;6.76;72.79;98893.78;5071381;28;20268;-60
2023/01/16 00:03:53;;;;;;;;;;;;;;;6.83;72.09;98896.19;5063647;28;20080;-60
2023/01/16 00:06:19;;;;;;;;;;;;;;;6.88;72.68;98896.88;5073576;28;19935;-61
2023/01/16 00:08:44;;;;;;;;;;;;;;;6.90;72.44;98891.53;5069506;28;19939;-61
2023/01/16 00:11:10;;;;;;;;;;;;;;;6.87;72.75;98889.84;5074147;28;19965;-60
2023/01/16 00:13:35;;;;;;;;;;;;;;;6.91;71.79;98888.84;5071800;28;19948;-60
2023/01/16 00:16:01;;;;;;;;;;;;;;;6.92;72.51;98887.91;5072545;28;19923;-60
2023/01/16 00:18:26;;;;;;;;;;;;;;;6.93;72.71;98878.22;5073591;28;19929;-60
2023/01/16 00:20:51;;;;;;;;;;;;;;;6.93;72.05;98868.50;5072954;28;20380;-60
2023/01/16 00:23:17;;;;;;;;;;;;;;;6.96;72.00;98865.75;5073615;28;19916;-61
2023/01/16 00:25:42;;;;;;;;;;;;;;;6.94;72.28;98861.41;5073575;28;20010;-60
2023/01/16 00:28:08;;;;;;;;;;;;;;;6.94;71.89;98857.00;5053449;28;19924;-60
2023/01/16 00:30:34;;;;;;;;;;;;;;;6.97;72.45;98851.59;5058289;28;19970;-60
2023/01/16 00:32:59;;;;;;;;;;;;;;;6.94;71.74;98849.06;5059821;28;19950;-60
2023/01/16 00:35:26;;;;;;;;;;;;;;;6.92;70.94;98835.03;5053493;28;19962;-60
2023/01/16 00:37:51;;;;;;;;;;;;;;;6.98;71.25;98826.91;5070198;28;19980;-60
2023/01/16 00:40:17;;;;;;;;;;;;;;;6.97;71.58;98822.53;5073288;28;19974;-60
2023/01/16 00:42:42;;;;;;;;;;;;;;;6.97;70.70;98809.31;5061996;28;19981;-60
2023/01/16 00:45:07;;;;;;;;;;;;;;;7.04;71.04;98807.28;5053247;28;19944;-60
2023/01/16 00:47:33;;;;;;;;;;;;;;;7.04;71.44;98808.16;5055271;28;20310;-60
2023/01/16 00:49:58;;;;;;;;;;;;;;;7.02;72.03;98803.88;5053497;28;19959;-60
2023/01/16 00:52:23;;;;;;;;;;;;;;;6.99;71.33;98796.91;5070239;28;19952;-60
2023/01/16 00:54:48;;;;;;;;;;;;;;;7.01;71.03;98800.34;5060874;28;19927;-60
2023/01/16 00:57:14;;;;;;;;;;;;;;;7.00;71.59;98790.69;5052944;28;19921;-61
2023/01/16 00:59:39;;;;;;;;;;;;;;;7.02;71.90;98783.56;5053722;28;19930;-60
2023/01/16 01:02:04;;;;;;;;;;;;;;;7.02;72.56;98780.91;5072879;28;20058;-60
2023/01/16 01:04:30;;;;;;;;;;;;;;;7.05;72.21;98780.78;5072765;28;19947;-60
2023/01/16 01:06:55;;;;;;;;;;;;;;;7.02;73.16;98775.63;5058370;28;19932;-60
2023/01/16 01:09:20;;;;;;;;;;;;;;;7.02;72.23;98774.78;5071503;28;19908;-60
2023/01/16 01:11:45;;;;;;;;;;;;;;;7.02;73.40;98770.34;5072802;28;20685;-60
2023/01/16 01:14:11;;;;;;;;;;;;;;;7.02;72.82;98769.50;5072471;28;19913;-60
2023/01/16 01:16:36;;;;;;;;;;;;;;;7.02;73.31;98758.94;5068879;28;20399;-60
2023/01/16 01:19:01;;;;;;;;;;;;;;;6.99;73.25;98748.44;5072650;28;19930;-60
2023/01/16 01:21:26;;;;;;;;;;;;;;;6.97;72.95;98740.59;5067929;28;20601;-60
2023/01/16 01:23:52;;;;;;;;;;;;;;;7.03;73.70;98740.38;5072760;28;20017;-60
2023/01/16 01:26:18;;;;;;;;;;;;;;;7.01;73.68;98728.97;5072378;28;19926;-60
2023/01/16 01:28:43;;;;;;;;;;;;;;;6.99;74.31;98717.59;5072469;28;19925;-60
2023/01/16 01:31:10;;;;;;;;;;;;;;;6.94;73.97;98721.34;5059576;28;19983;-60
2023/01/16 01:33:36;;;;;;;;;;;;;;;6.95;74.25;98715.16;5071080;28;19985;-61
2023/01/16 01:36:01;;;;;;;;;;;;;;;6.96;73.96;98707.16;5080213;28;20626;-60
2023/01/16 01:38:26;;;;;;;;;;;;;;;6.94;74.92;98708.13;5072296;28;19934;-60
2023/01/16 01:40:52;;;;;;;;;;;;;;;6.91;74.64;98693.25;5068341;28;19930;-60
2023/01/16 01:43:17;;;;;;;;;;;;;;;6.89;74.52;98694.22;5052047;28;19912;-60
2023/01/16 01:45:46;;;;;;;;;;;;;;;6.92;73.32;98688.84;5052254;28;20000;-61
2023/01/16 01:48:12;;;;;;;;;;;;;;;6.93;73.75;98685.25;5054783;28;20411;-60
2023/01/16 01:50:37;;;;;;;;;;;;;;;6.93;74.27;98674.69;5054330;28;19926;-60
2023/01/16 01:53:07;;;;;;;;;;;;;;;6.93;74.15;98674.69;5066201;28;19952;-60
2023/01/16 01:55:32;;;;;;;;;;;;;;;6.94;74.27;98664.06;5051746;28;19942;-60
2023/01/16 01:57:59;;;;;;;;;;;;;;;6.91;73.38;98664.19;5051788;28;19974;-60
2023/01/16 02:00:37;;;;;;;;;;;;;;;6.94;73.88;98653.47;5054435;28;19960;-60
2023/01/16 02:03:06;;;;;;;;;;;;;;;6.93;73.53;98649.13;5065540;28;20299;-60
2023/01/16 02:05:44;;;;;;;;;;;;;;;6.96;73.46;98646.34;5071620;28;19944;-60
2023/01/16 02:08:10;;;;;;;;;;;;;;;7.01;73.51;98641.75;5064965;28;19981;-60
2023/01/16 02:10:38;;;;;;;;;;;;;;;7.04;74.72;98630.19;5071619;28;19923;-60
2023/01/16 02:13:04;;;;;;;;;;;;;;;7.12;75.17;98628.06;5065544;28;19947;-60
2023/01/16 02:15:30;;;;;;;;;;;;;;;7.18;74.20;98617.28;5051668;28;19939;-60
2023/01/16 02:20:52;;;;;;;;;;;;;;;7.19;74.00;98603.97;5054083;28;19925;-60
2023/01/16 02:23:48;;;;;;;;;;;;;;;7.11;74.61;98584.94;5043591;28;20318;-60
2023/01/16 02:26:32;;;;;;;;;;;;;;;7.07;73.70;98582.50;5074686;28;19923;-60
2023/01/16 02:29:03;;;;;;;;;;;;;;;7.01;73.64;98578.31;5071505;28;19927;-60
2023/01/16 02:31:38;;;;;;;;;;;;;;;6.96;73.85;98569.72;5066301;28;20050;-60
2023/01/16 02:34:06;;;;;;;;;;;;;;;6.89;75.00;98557.66;5051169;28;20029;-60
2023/01/16 02:36:44;;;;;;;;;;;;;;;6.80;74.25;98547.47;5053156;28;20419;-61
2023/01/16 02:39:28;;;;;;;;;;;;;;;6.78;74.28;98551.97;5070519;28;19927;-60
2023/01/16 02:42:12;;;;;;;;;;;;;;;6.71;74.28;98539.91;5071502;28;20347;-60
2023/01/16 02:44:55;;;;;;;;;;;;;;;6.66;74.31;98533.94;5069183;28;20402;-60
2023/01/16 02:47:26;;;;;;;;;;;;;;;6.63;74.17;98519.09;5070452;28;19908;-60
2023/01/16 02:49:54;;;;;;;;;;;;;;;6.65;74.92;98516.41;5057260;28;19927;-60
2023/01/16 02:52:28;;;;;;;;;;;;;;;6.61;74.67;98510.38;5066602;28;19927;-60
2023/01/16 02:55:00;;;;;;;;;;;;;;;6.59;74.05;98506.06;5065444;28;19948;-61
2023/01/16 02:57:29;;;;;;;;;;;;;;;6.60;74.36;98497.22;5049922;28;19955;-60
2023/01/16 02:59:54;;;;;;;;;;;;;;;6.56;75.01;98492.97;5050044;28;19919;-60
2023/01/16 03:02:20;;;;;;;;;;;;;;;6.54;74.83;98486.91;5053174;28;19990;-60
2023/01/16 03:04:49;;;;;;;;;;;;;;;6.57;74.52;98476.22;5067427;28;19942;-60
2023/01/16 03:07:20;;;;;;;;;;;;;;;6.56;73.74;98471.84;5062101;28;19975;-60
2023/01/16 03:10:05;;;;;;;;;;;;;;;6.54;74.66;98458.72;5051046;28;20327;-60
2023/01/16 03:12:33;;;;;;;;;;;;;;;6.52;74.66;98457.06;5052833;28;20041;-60
2023/01/16 03:15:17;;;;;;;;;;;;;;;6.54;73.99;98449.91;5051302;28;19934;-60
2023/01/16 03:17:58;;;;;;;;;;;;;;;6.57;74.72;98439.25;5051173;28;19934;-60
2023/01/16 03:20:42;;;;;;;;;;;;;;;6.49;75.49;98430.78;5053475;28;20060;-60
2023/01/16 03:23:19;;;;;;;;;;;;;;;6.45;76.02;98421.25;5070909;28;19912;-60
2023/01/16 03:25:50;;;;;;;;;;;;;;;6.41;76.47;98422.28;5059183;28;19990;-60
2023/01/16 03:28:54;;;;;;;;;;;;;;;6.47;75.66;98417.63;5070176;28;19924;-61
2023/01/16 03:31:42;;;;;;;;;;;;;;;6.44;75.95;98395.78;4981406;28;19963;-60
2023/01/16 03:34:13;;;;;;;;;;;;;;;6.46;76.78;98391.28;4973659;28;19948;-60
2023/01/16 03:36:55;;;;;;;;;;;;;;;6.41;75.92;98385.31;5036336;28;19931;-60
2023/01/16 03:39:23;;;;;;;;;;;;;;;6.39;76.12;98368.72;5054453;28;19912;-61
2023/01/16 03:41:51;;;;;;;;;;;;;;;6.32;77.15;98359.31;5054411;28;19915;-60
2023/01/16 03:44:24;;;;;;;;;;;;;;;6.32;76.56;98346.13;5057108;28;19941;-60
2023/01/16 03:46:50;;;;;;;;;;;;;;;6.37;76.38;98341.50;5056991;28;19963;-60
2023/01/16 03:49:18;;;;;;;;;;;;;;;6.34;77.24;98339.00;5054290;28;20403;-60
2023/01/16 03:51:45;;;;;;;;;;;;;;;6.30;77.79;98329.47;5065576;28;19927;-60
2023/01/16 03:54:16;;;;;;;;;;;;;;;6.27;77.58;98324.34;5071467;28;20642;-60
2023/01/16 03:56:55;;;;;;;;;;;;;;;6.26;77.38;98320.00;5053222;28;20428;-60
2023/01/16 03:59:20;;;;;;;;;;;;;;;6.25;77.26;98310.34;5054018;28;19931;-60
2023/01/16 04:01:53;;;;;;;;;;;;;;;6.23;77.28;98306.91;5072604;28;19923;-60
2023/01/16 04:04:21;;;;;;;;;;;;;;;6.27;76.49;98290.03;5071939;28;19926;-60
2023/01/16 04:06:58;;;;;;;;;;;;;;;6.34;76.21;98280.91;5060346;28;19978;-60
2023/01/16 04:09:29;;;;;;;;;;;;;;;6.37;75.72;98272.84;5051924;28;20323;-60
2023/01/16 04:11:55;;;;;;;;;;;;;;;6.42;75.28;98261.19;5055938;28;20314;-60
2023/01/16 04:14:22;;;;;;;;;;;;;;;6.45;74.34;98260.19;5072766;28;19916;-60
2023/01/16 04:16:48;;;;;;;;;;;;;;;6.54;73.57;98238.63;5073258;28;20740;-60
2023/01/16 04:19:15;;;;;;;;;;;;;;;6.59;74.12;98231.34;5059679;28;19961;-60
2023/01/16 04:21:42;;;;;;;;;;;;;;;6.61;73.19;98219.81;5064837;28;19925;-59
2023/01/16 04:24:08;;;;;;;;;;;;;;;6.63;72.59;98207.41;5067366;28;19954;-60
2023/01/16 04:26:33;;;;;;;;;;;;;;;6.64;72.00;98201.16;5053444;28;19923;-60
2023/01/16 04:28:58;;;;;;;;;;;;;;;6.62;72.78;98194.25;5053572;28;19938;-60
2023/01/16 04:31:24;;;;;;;;;;;;;;;6.62;72.59;98173.13;5055950;28;20289;-59
2023/01/16 04:33:49;;;;;;;;;;;;;;;6.66;72.63;98169.41;5068836;28;20350;-59
2023/01/16 04:36:15;;;;;;;;;;;;;;;6.62;72.91;98163.41;5073538;28;20334;-60
2023/01/16 04:38:40;;;;;;;;;;;;;;;6.63;73.29;98164.25;5071218;28;20949;-60
2023/01/16 04:41:05;;;;;;;;;;;;;;;6.62;72.44;98146.72;5055072;28;19991;-60
2023/01/16 04:43:31;;;;;;;;;;;;;;;6.63;72.51;98140.50;5065492;28;19912;-59
2023/01/16 04:45:56;;;;;;;;;;;;;;;6.61;72.04;98126.50;5072854;28;20019;-60
2023/01/16 04:48:21;;;;;;;;;;;;;;;6.65;72.34;98128.06;5070628;28;19921;-59
2023/01/16 04:50:49;;;;;;;;;;;;;;;6.67;71.97;98111.22;5058212;28;19942;-60
2023/01/16 04:53:15;;;;;;;;;;;;;;;6.61;71.82;98100.94;5072396;28;19976;-60
2023/01/16 04:55:40;;;;;;;;;;;;;;;6.72;71.63;98094.28;5072227;28;19994;-60
2023/01/16 04:58:06;;;;;;;;;;;;;;;6.79;71.63;98087.81;5069711;28;20376;-60
2023/01/16 05:00:31;;;;;;;;;;;;;;;6.93;70.21;98077.41;5072088;28;19954;-60
2023/01/16 05:02:56;;;;;;;;;;;;;;;6.95;70.45;98071.13;5072881;28;19980;-59
2023/01/16 05:05:22;;;;;;;;;;;;;;;6.99;69.80;98062.09;5055948;28;19946;-60
2023/01/16 05:08:15;;;;;;;;;;;;;;;6.98;69.83;98054.25;5053151;28;19991;-60
2023/01/16 05:10:32;;;;;;;;;;;;;;;7.01;69.00;98038.22;5054991;28;19940;-60
2023/01/16 05:12:57;;;;;;;;;;;;;;;7.05;69.48;98034.50;5052538;28;19945;-60
2023/01/16 05:15:23;;;;;;;;;;;;;;;7.06;69.74;98030.94;5053180;28;19934;-60
2023/01/16 05:17:48;;;;;;;;;;;;;;;7.13;69.33;98017.34;5054446;28;19923;-60
2023/01/16 05:20:13;;;;;;;;;;;;;;;7.16;67.71;98013.69;5065316;28;19932;-60
2023/01/16 05:22:38;;;;;;;;;;;;;;;7.22;67.18;98006.28;5061801;28;19984;-59
2023/01/16 05:25:04;;;;;;;;;;;;;;;7.24;67.02;97988.56;5052595;28;20567;-60
2023/01/16 05:27:29;;;;;;;;;;;;;;;7.24;67.31;97977.97;5052517;28;19926;-60
2023/01/16 05:29:54;;;;;;;;;;;;;;;7.30;66.90;97964.44;5068606;28;20352;-60
2023/01/16 05:32:20;;;;;;;;;;;;;;;7.29;67.33;97949.53;5068496;28;19934;-60
2023/01/16 05:34:45;;;;;;;;;;;;;;;7.26;67.57;97951.47;5072351;28;19920;-60
2023/01/16 05:37:10;;;;;;;;;;;;;;;7.23;68.67;97939.25;5066521;28;19947;-59
2023/01/16 05:39:35;;;;;;;;;;;;;;;7.17;68.15;97936.94;5088350;28;19933;-59
2023/01/16 05:42:01;;;;;;;;;;;;;;;7.20;68.28;97928.00;5054045;28;19941;-60
2023/01/16 05:44:26;;;;;;;;;;;;;;;7.24;67.93;97917.19;5052196;28;19928;-60
2023/01/16 05:46:51;;;;;;;;;;;;;;;7.23;67.45;97911.97;5054040;28;19933;-59
2023/01/16 05:49:17;;;;;;;;;;;;;;;7.30;66.89;97898.34;5052184;28;19943;-59
2023/01/16 05:51:42;;;;;;;;;;;;;;;7.36;67.15;97884.81;5061609;28;19934;-59
2023/01/16 05:54:10;;;;;;;;;;;;;;;7.35;65.63;97869.84;5051347;28;19943;-59
2023/01/16 05:56:35;;;;;;;;;;;;;;;7.40;65.31;97867.81;5071005;28;19920;-59
2023/01/16 05:59:00;;;;;;;;;;;;;;;7.40;65.61;97857.25;5071894;28;19914;-60
2023/01/16 06:01:25;;;;;;;;;;;;;;;7.39;65.67;97844.09;5068316;28;19916;-60
2023/01/16 06:03:51;;;;;;;;;;;;;;;7.37;65.59;97841.53;5071635;28;19977;-60
2023/01/16 06:06:16;;;;;;;;;;;;;;;7.31;66.08;97841.88;5070621;28;19953;-60
2023/01/16 06:08:41;;;;;;;;;;;;;;;7.26;66.34;97836.00;5069616;28;19985;-60
2023/01/16 06:11:06;;;;;;;;;;;;;;;7.27;66.64;97829.75;5071604;28;20400;-60
2023/01/16 06:13:32;;;;;;;;;;;;;;;7.27;66.13;97819.19;5071873;28;19995;-59
2023/01/16 06:15:57;;;;;;;;;;;;;;;7.35;65.41;97816.97;5067334;28;20372;-59
2023/01/16 06:18:22;;;;;;;;;;;;;;;7.36;65.65;97815.19;5051648;28;19938;-59
2023/01/16 06:20:47;;;;;;;;;;;;;;;7.37;65.87;97791.28;5055542;28;19929;-60
2023/01/16 06:23:13;;;;;;;;;;;;;;;7.36;65.86;97786.97;5071563;28;19972;-59
2023/01/16 06:25:38;;;;;;;;;;;;;;;7.33;66.10;97779.16;5065370;28;19912;-60
2023/01/16 06:28:03;;;;;;;;;;;;;;;7.29;66.62;97769.72;5074229;28;19977;-60
2023/01/16 06:30:29;;;;;;;;;;;;;;;7.22;66.22;97768.34;5076227;28;19989;-60
2023/01/16 06:32:54;;;;;;;;;;;;;;;7.18;67.04;97761.50;5071368;28;19912;-60
2023/01/16 06:35:19;;;;;;;;;;;;;;;7.21;65.98;97747.28;5061629;28;20282;-59
2023/01/16 06:37:44;;;;;;;;;;;;;;;7.25;65.24;97747.03;5051178;28;20011;-60
2023/01/16 06:40:10;;;;;;;;;;;;;;;7.29;63.91;97738.00;5057303;28;19924;-60
2023/01/16 06:42:35;;;;;;;;;;;;;;;7.40;63.60;97732.94;5071343;28;20330;-59
2023/01/16 06:45:01;;;;;;;;;;;;;;;7.52;63.22;97732.25;5071417;28;19908;-60
2023/01/16 06:47:27;;;;;;;;;;;;;;;7.59;62.70;97725.69;5067770;28;19923;-60
2023/01/16 06:49:52;;;;;;;;;;;;;;;7.63;62.47;97721.91;5071140;28;19919;-60
2023/01/16 06:52:18;;;;;;;;;;;;;;;7.63;63.13;97713.97;5071145;28;19908;-60
2023/01/16 06:54:43;;;;;;;;;;;;;;;7.59;62.64;97709.81;5069291;28;20044;-60
2023/01/16 06:57:08;;;;;;;;;;;;;;;7.58;62.94;97709.88;5051948;28;19961;-60
2023/01/16 06:59:33;;;;;;;;;;;;;;;7.57;63.32;97705.53;5033105;28;20438;-60
2023/01/16 07:01:59;;;;;;;;;;;;;;;7.57;63.28;97698.47;5063306;28;20045;-60
2023/01/16 07:04:24;;;;;;;;;;;;;;;7.56;62.55;97688.81;5072986;28;19908;-60
2023/01/16 07:06:50;;;;;;;;;;;;;;;7.60;61.51;97695.63;5075034;28;20277;-60
2023/01/16 07:09:16;;;;;;;;;;;;;;;7.76;60.47;97696.44;5072464;28;19980;-60
2023/01/16 07:11:41;;;;;;;;;;;;;;;7.90;59.83;97682.41;5057733;28;19939;-60
2023/01/16 07:22:43;;;;;;;;;;;;;;;8.07;59.90;97647.00;5071172;28;19947;-60
2023/01/16 07:25:13;;;;;;;;;;;;;;;8.01;59.82;97640.28;5068163;28;19978;-60
2023/01/16 07:27:39;;;;;;;;;;;;;;;7.98;59.83;97636.03;5072607;28;19968;-60
2023/01/16 07:30:05;;;;;;;;;;;;;;;7.95;60.39;97638.00;5074542;28;20310;-60
2023/01/16 07:32:30;;;;;;;;;;;;;;;7.91;59.75;97637.34;5071412;28;19926;-60
2023/01/16 07:34:56;;;;;;;;;;;;;;;7.93;59.64;97627.50;5074759;28;19912;-60
2023/01/16 07:37:21;;;;;;;;;;;;;;;7.99;58.86;97627.13;5066073;28;19927;-60
2023/01/16 07:39:46;;;;;;;;;;;;;;;8.03;59.29;97620.72;5074868;28;19959;-60
2023/01/16 07:42:12;;;;;;;;;;;;;;;8.04;59.13;97610.97;5071067;28;19974;-60
2023/01/16 07:44:37;;;;;;;;;;;;;;;8.06;58.23;97609.09;5053927;28;20294;-60
2023/01/16 07:47:02;;;;;;;;;;;;;;;8.10;59.30;97609.75;5065337;28;19927;-60
2023/01/16 07:49:27;;;;;;;;;;;;;;;8.16;57.53;97596.97;5062525;28;19935;-60
2023/01/16 07:51:53;;;;;;;;;;;;;;;8.24;57.41;97585.97;5064793;28;19994;-60
2023/01/16 07:54:18;;;;;;;;;;;;;;;8.32;58.76;97589.00;5071834;28;20285;-60
2023/01/16 07:56:43;;;;;;;;;;;;;;;8.27;57.11;97580.47;5071709;28;19912;-60
2023/01/16 07:59:08;;;;;;;;;;;;;;;8.31;57.25;97582.84;5061060;28;20296;-60
2023/01/16 08:01:34;;;;;;;;;;;;;;;8.31;56.88;97581.97;5054243;28;20019;-60
2023/01/16 08:03:59;;;;;;;;;;;;;;;8.36;56.82;97571.94;5058477;28;19927;-60
2023/01/16 08:06:25;;;;;;;;;;;;;;;8.52;55.08;97564.72;5052890;28;20661;-60
2023/01/16 08:08:50;;;;;;;;;;;;;;;8.60;54.32;97563.31;5052859;28;19920;-60
2023/01/16 08:13:59;;;;;;;;;;;;;;;8.76;53.66;97549.94;5052736;28;19924;-60
2023/01/16 08:16:24;;;;;;;;;;;;;;;8.77;54.02;97538.38;5054260;28;20346;-60
2023/01/16 08:18:50;;;;;;;;;;;;;;;8.79;53.93;97541.78;5052888;28;19944;-60
2023/01/16 08:21:16;;;;;;;;;;;;;;;8.78;54.43;97540.09;5060203;28;19908;-60
2023/01/16 08:23:42;;;;;;;;;;;;;;;8.79;54.36;97528.53;5055847;28;20001;-60
2023/01/16 08:26:07;;;;;;;;;;;;;;;8.82;53.86;97536.28;5071611;28;20013;-60
2023/01/16 08:28:32;;;;;;;;;;;;;;;8.89;53.24;97519.03;5076085;28;19981;-60
2023/01/16 08:31:03;;;;;;;;;;;;;;;8.98;51.97;97510.44;5072998;28;19947;-60
2023/01/16 08:33:28;;;;;;;;;;;;;;;9.04;52.24;97510.06;5053493;28;19913;-60
2023/01/16 08:35:56;;;;;;;;;;;;;;;9.11;52.31;97516.66;5053647;28;20397;-60
2023/01/16 08:38:21;;;;;;;;;;;;;;;9.21;52.34;97512.44;5055558;28;19912;-59
2023/01/16 08:40:46;;;;;;;;;;;;;;;9.25;52.71;97504.19;5057690;28;20390;-60
2023/01/16 08:51:21;;;;;;;;;;;;;;;9.26;52.17;97497.06;5059278;28;19919;-60
2023/01/16 08:51:34;;;;;;;;;;;;;;;9.36;52.86;97484.88;5063554;28;20015;-60
2023/01/16 08:53:59;;;;;;;;;;;;;;;9.37;52.90;97464.50;5073193;28;20062;-60
2023/01/16 08:56:24;;;;;;;;;;;;;;;9.32;52.15;97478.09;5073202;28;20009;-60
2023/01/16 08:58:50;;;;;;;;;;;;;;;9.31;52.48;97471.94;5068514;28;19927;-60
2023/01/16 09:01:15;;;;;;;;;;;;;;;9.29;52.58;97468.53;5065173;28;19917;-60
2023/01/16 09:03:41;;;;;;;;;;;;;;;9.29;52.68;97467.69;5060468;28;19912;-60
2023/01/16 09:06:07;;;;;;;;;;;;;;;9.25;52.96;97466.19;5072006;28;19942;-60
2023/01/16 09:08:32;;;;;;;;;;;;;;;9.23;53.43;97460.13;5055505;28;19945;-60
2023/01/16 09:13:49;;;;;;;;;;;;;;;9.17;55.02;97452.63;5041116;28;20364;-60
2023/01/16 09:16:24;;;;;;;;;;;;;;;9.12;55.34;97446.75;5052734;28;19943;-60
2023/01/16 09:18:49;;;;;;;;;;;;;;;9.18;55.19;97441.03;5054594;28;19931;-60
2023/01/16 09:21:15;;;;;;;;;;;;;;;9.18;55.94;97443.69;5072602;28;19924;-60
2023/01/16 09:23:40;;;;;;;;;;;;;;;9.08;55.80;97438.16;5072220;28;20542;-60
2023/01/16 09:26:05;;;;;;;;;;;;;;;9.04;56.73;97434.00;5058017;28;19933;-60
2023/01/16 09:28:31;;;;;;;;;;;;;;;9.03;56.77;97434.13;5051655;28;19921;-60
2023/01/16 09:30:56;;;;;;;;;;;;;;;8.99;56.91;97435.28;5054903;28;20582;-60
2023/01/16 09:33:21;;;;;;;;;;;;;;;8.99;56.31;97437.94;5052232;28;19924;-60
2023/01/16 09:35:47;;;;;;;;;;;;;;;9.07;56.95;97435.63;5052203;28;19946;-59
2023/01/16 09:38:12;;;;;;;;;;;;;;;9.09;56.54;97423.94;5065694;28;19996;-59
2023/01/16 09:40:37;;;;;;;;;;;;;;;9.15;56.97;97428.00;5055210;28;19986;-60
2023/01/16 09:45:51;;;;;;;;;;;;;;;9.22;57.20;97421.31;5063121;28;19979;-60
2023/01/16 09:48:29;;;;;;;;;;;;;;;9.27;57.53;97427.16;5126440;27;19940;-60
2023/01/16 09:50:57;;;;;;;;;;;;;;;9.28;58.32;97412.94;5104435;28;19930;-60
2023/01/16 09:59:16;;;;;;;;;;;;;;;9.27;59.26;97408.59;5088694;28;20003;-60
2023/01/16 10:01:45;;;;;;;;;;;;;;;9.24;59.82;97396.38;5088736;28;20328;-61
2023/01/16 10:04:20;;;;;;;;;;;;;;;9.28;60.14;97383.75;5101770;28;19938;-60
2023/01/16 10:06:54;;;;;;;;;;;;;;;9.23;60.62;97388.53;5108662;28;19921;-60
2023/01/16 10:09:28;;;;;;;;;;;;;;;9.21;60.69;97385.13;5090633;28;19944;-61
2023/01/16 10:11:57;;;;;;;;;;;;;;;9.36;61.67;97389.38;5088488;28;20076;-60
2023/01/16 10:14:51;;;;;;;;;;;;;;;9.38;61.73;97370.69;5088198;28;19920;-61
2023/01/16 10:17:35;;;;;;;;;;;;;;;9.28;62.87;97397.88;5091043;28;19961;-60
2023/01/16 10:20:12;;;;;;;;;;;;;;;9.36;63.87;97372.63;5086895;28;20026;-61
2023/01/16 10:22:44;;;;;;;;;;;;;;;9.40;64.47;97379.41;5107693;28;19946;-60
2023/01/16 10:25:32;;;;;;;;;;;;;;;9.42;64.82;97367.75;5108087;28;19912;-61
2023/01/16 10:28:00;;;;;;;;;;;;;;;9.49;64.14;97384.09;5090315;28;19953;-60
2023/01/16 10:30:28;;;;;;;;;;;;;;;9.52;63.69;97371.47;5092602;28;19949;-61
2023/01/16 10:33:13;;;;;;;;;;;;;;;9.47;64.14;97376.25;5094982;28;20040;-60
2023/01/16 10:35:42;;;;;;;;;;;;;;;9.38;64.05;97354.78;5092776;28;19976;-61
2023/01/16 10:38:39;;;;;;;;;;;;;;;9.43;64.83;97363.28;5101617;28;19920;-60
2023/01/16 10:49:25;;;;;;;;;;;;;;;9.36;64.38;97341.63;5087892;28;20316;-60
2023/01/16 10:49:27;;;;;;;;;;;;;;;9.45;63.46;97334.84;5087925;28;19966;-60
2023/01/16 10:51:54;;;;;;;;;;;;;;;9.50;63.19;97328.25;5098669;28;19920;-61
2023/01/16 10:54:19;;;;;;;;;;;;;;;9.60;62.99;97308.06;5107616;28;20011;-61
2023/01/16 10:56:45;;;;;;;;;;;;;;;9.56;63.74;97301.28;5103699;28;20343;-61
2023/01/16 10:59:11;;;;;;;;;;;;;;;9.66;64.66;97301.47;5076506;28;19923;-61
2023/01/16 11:01:37;;;;;;;;;;;;;;;9.62;63.75;97294.69;5076177;28;19927;-61
2023/01/16 11:04:05;;;;;;;;;;;;;;;9.63;64.72;97291.94;5084837;28;20407;-60
2023/01/16 11:06:30;;;;;;;;;;;;;;;9.47;64.53;97301.09;5075554;28;19924;-60
2023/01/16 11:08:58;;;;;;;;;;;;;;;9.48;65.50;97282.41;5073214;28;20387;-61
2023/01/16 11:19:42;;;;;;;;;;;;;;;9.50;67.60;97240.69;5094085;28;19977;-61
2023/01/16 11:22:19;;;;;;;;;;;;;;;9.60;67.96;97224.94;5093754;28;20008;-61
2023/01/16 11:24:45;;;;;;;;;;;;;;;9.66;67.37;97217.38;5084547;28;19925;-60
2023/01/16 11:27:14;;;;;;;;;;;;;;;9.70;67.94;97213.56;5073512;28;20011;-60
2023/01/16 11:29:42;;;;;;;;;;;;;;;9.70;67.69;97202.09;5077826;28;19927;-60
2023/01/16 11:32:09;;;;;;;;;;;;;;;9.80;67.96;97203.94;5093709;28;20613;-61
2023/01/16 11:34:36;;;;;;;;;;;;;;;9.79;67.86;97212.88;5091418;28;20449;-61
2023/01/16 11:37:03;;;;;;;;;;;;;;;10.02;68.41;97196.06;5092317;28;19912;-60
2023/01/16 11:39:30;;;;;;;;;;;;;;;10.11;67.12;97190.13;5093267;28;19943;-60
2023/01/16 11:41:57;;;;;;;;;;;;;;;10.14;66.73;97189.03;5073211;28;20582;-60
2023/01/16 11:47:17;;;;;;;;;;;;;;;10.33;65.48;97158.28;5092335;28;19951;-60
2023/01/16 11:49:46;;;;;;;;;;;;;;;10.34;65.81;97160.00;5090667;28;19916;-60
2023/01/16 11:52:26;;;;;;;;;;;;;;;10.25;65.45;97141.22;5073954;28;19923;-60
2023/01/16 11:55:02;;;;;;;;;;;;;;;10.36;67.13;97150.06;5092609;28;19951;-60
2023/01/16 11:57:41;;;;;;;;;;;;;;;10.69;64.09;97145.78;5089972;28;20011;-60
2023/01/16 12:00:23;;;;;;;;;;;;;;;10.90;63.86;97128.09;5092397;28;19912;-60
2023/01/16 12:02:51;;;;;;;;;;;;;;;11.41;61.41;97129.22;5083259;28;19919;-60
2023/01/16 12:08:22;;;;;;;;;;;;;;;12.38;55.82;97124.56;5092549;28;19977;-60
2023/01/16 12:11:06;;;;;;;;;;;;;;;11.82;56.11;97108.91;5079478;28;19920;-60
2023/01/16 12:16:53;;;;;;;;;;;;;;;11.20;58.23;97099.06;5042467;28;19927;-61
2023/01/16 12:19:37;;;;;;;;;;;;;;;11.12;59.58;97094.34;5091773;28;19912;-60
2023/01/16 12:22:02;;;;;;;;;;;;;;;10.99;59.27;97084.84;5091436;28;19922;-60
2023/01/16 12:24:36;;;;;;;;;;;;;;;11.24;58.97;97080.06;5090488;28;19995;-60
2023/01/16 12:27:02;;;;;;;;;;;;;;;11.52;59.29;97076.81;5089134;28;19927;-60
2023/01/16 12:29:34;;;;;;;;;;;;;;;11.61;58.16;97056.56;5091383;28;20002;-60
2023/01/16 12:32:07;;;;;;;;;;;;;;;11.68;57.34;97036.44;5078224;28;20016;-61
2023/01/16 12:34:35;;;;;;;;;;;;;;;11.70;56.41;97039.84;5071917;28;20360;-61
2023/01/16 12:37:03;;;;;;;;;;;;;;;11.97;54.95;97036.66;5076386;28;19916;-61
2023/01/16 12:39:41;;;;;;;;;;;;;;;12.06;54.46;97042.03;5092443;28;19942;-61
2023/01/16 12:44:57;;;;;;;;;;;;;;;11.46;55.46;97042.72;5091587;28;19920;-60
2023/01/16 12:47:32;;;;;;;;;;;;;;;11.56;55.60;97027.69;5091904;28;19998;-61
2023/01/16 12:50:00;;;;;;;;;;;;;;;11.53;55.26;97035.06;5092141;28;19922;-63
2023/01/16 12:52:28;;;;;;;;;;;;;;;11.60;56.63;97014.94;5088133;28;20019;-64
2023/01/16 12:55:12;;;;;;;;;;;;;;;11.53;55.75;97019.09;5092143;28;19927;-63
2023/01/16 12:57:45;;;;;;;;;;;;;;;11.30;56.67;97009.53;5091986;28;20485;-63
2023/01/16 13:00:12;;;;;;;;;;;;;;;10.96;55.14;97005.28;5078893;28;20153;-63
2023/01/16 13:02:38;;;;;;;;;;;;;;;10.85;56.88;96997.34;5073395;28;20375;-63
2023/01/16 13:05:18;;;;;;;;;;;;;;;10.76;56.49;97001.59;5091241;28;19912;-63
2023/01/16 13:07:55;;;;;;;;;;;;;;;10.87;58.12;96990.09;5091873;28;19916;-63
2023/01/16 13:13:25;;;;;;;;;;;;;;;10.79;57.17;96992.53;5071561;28;20326;-63
2023/01/16 13:16:10;;;;;;;;;;;;;;;10.91;57.96;96983.53;5074049;28;19917;-63
2023/01/16 13:18:42;;;;;;;;;;;;;;;10.87;58.26;96982.13;5070750;28;20019;-64
2023/01/16 13:21:19;;;;;;;;;;;;;;;10.77;58.20;96971.41;5084075;28;20473;-63
2023/01/16 13:23:50;;;;;;;;;;;;;;;10.82;58.92;96963.03;5070560;28;19931;-63
2023/01/16 13:26:17;;;;;;;;;;;;;;;10.89;59.56;96977.53;5073143;28;19916;-63
2023/01/16 13:28:46;;;;;;;;;;;;;;;10.74;59.23;96968.13;5087996;28;20274;-63
2023/01/16 13:31:15;;;;;;;;;;;;;;;10.59;59.87;96960.44;5089598;28;19916;-63
2023/01/16 13:33:43;;;;;;;;;;;;;;;10.55;60.54;96948.38;5084250;28;19927;-63
2023/01/16 13:36:12;;;;;;;;;;;;;;;10.46;59.96;96927.84;5091572;28;20332;-63
2023/01/16 13:38:40;;;;;;;;;;;;;;;10.51;60.63;96923.00;5091410;28;19915;-63
2023/01/16 13:41:11;;;;;;;;;;;;;;;10.53;60.33;96923.72;5087155;28;19922;-62
2023/01/16 13:46:39;;;;;;;;;;;;;;;10.45;62.09;96915.53;5071073;28;19959;-63
2023/01/16 13:49:05;;;;;;;;;;;;;;;10.37;61.99;96896.72;5071172;28;20340;-63
2023/01/16 13:51:39;;;;;;;;;;;;;;;10.26;62.20;96931.25;5083242;28;19923;-63
2023/01/16 13:54:09;;;;;;;;;;;;;;;10.17;61.83;96910.78;5091297;28;20381;-63
2023/01/16 13:56:40;;;;;;;;;;;;;;;10.01;61.72;96899.66;5091105;28;19938;-62
2023/01/16 13:59:08;;;;;;;;;;;;;;;10.12;62.94;96912.94;5089017;28;20334;-63
2023/01/16 14:01:55;;;;;;;;;;;;;;;10.04;62.68;96904.72;5076498;28;20371;-63
2023/01/16 14:04:21;;;;;;;;;;;;;;;10.04;64.16;96896.75;5091048;28;19970;-62
2023/01/16 14:06:48;;;;;;;;;;;;;;;10.02;63.10;96887.22;5091180;28;19924;-63